createdAt,value
2018-01-05T00:00:09.262Z,9.57
2018-01-05T00:02:36.086Z,8.00
2018-01-05T00:05:03.609Z,13.03
2018-01-05T00:07:30.387Z,6.50
2018-01-05T00:09:57.882Z,7.97
2018-01-05T00:12:24.778Z,7.83
2018-01-05T00:14:51.564Z,13.13
2018-01-05T00:17:18.324Z,6.70
2018-01-05T00:19:45.122Z,10.63
2018-01-05T00:22:12.803Z,12.67
2018-01-05T00:24:40.414Z,7.80
2018-01-05T00:27:07.244Z,12.10
2018-01-05T00:29:34.043Z,9.67
2018-01-05T00:32:00.932Z,8.47
2018-01-05T00:34:27.728Z,8.80
2018-01-05T00:36:55.271Z,6.87
2018-01-05T00:39:22.121Z,8.30
2018-01-05T00:41:48.934Z,10.63
2018-01-05T00:44:15.783Z,6.43
2018-01-05T00:46:43.306Z,7.30
2018-01-05T00:49:11.521Z,6.03
2018-01-05T00:51:38.489Z,8.33
2018-01-05T00:54:06.081Z,16.33
2018-01-05T00:56:32.931Z,11.10
2018-01-05T00:58:59.740Z,9.53
2018-01-05T01:01:26.922Z,9.20
2018-01-05T01:03:53.881Z,6.07
2018-01-05T01:06:20.710Z,7.03
2018-01-05T01:08:47.488Z,6.60
2018-01-05T01:11:14.266Z,7.00
2018-01-05T01:13:41.094Z,9.63
2018-01-05T01:16:08.718Z,6.80
2018-01-05T01:18:35.647Z,10.53
2018-01-05T01:21:02.428Z,9.77
2018-01-05T01:23:29.237Z,7.90
2018-01-05T01:25:56.118Z,10.10
2018-01-05T01:28:23.624Z,9.90
2018-01-05T01:30:50.628Z,10.47
2018-01-05T01:33:17.461Z,9.17
2018-01-05T01:35:44.323Z,14.17
2018-01-05T01:38:11.133Z,8.63
2018-01-05T01:40:38.712Z,16.53
2018-01-05T01:43:06.209Z,13.93
2018-01-05T01:45:33.217Z,12.23
2018-01-05T01:48:00.451Z,13.17
2018-01-05T01:50:27.342Z,11.93
2018-01-05T01:52:54.175Z,10.23
2018-01-05T01:55:21.000Z,15.70
2018-01-05T01:57:47.862Z,9.20
2018-01-05T02:00:15.449Z,17.63
2018-01-05T02:02:42.279Z,16.40
2018-01-05T02:05:09.090Z,11.07
2018-01-05T02:07:35.977Z,15.00
2018-01-05T02:10:02.823Z,13.67
2018-01-05T02:12:29.672Z,16.63
2018-01-05T02:14:56.481Z,13.40
2018-01-05T02:17:23.868Z,11.53
2018-01-05T02:19:50.833Z,18.57
2018-01-05T02:22:17.636Z,19.13
2018-01-05T02:24:44.434Z,14.20
2018-01-05T02:27:11.256Z,22.50
2018-01-05T02:29:38.142Z,20.10
2018-01-05T02:32:05.332Z,19.93
2018-01-05T02:34:32.509Z,11.70
2018-01-05T02:36:59.346Z,13.67
2018-01-05T02:39:26.100Z,20.93
2018-01-05T02:41:52.896Z,14.83
2018-01-05T02:44:19.867Z,15.60
2018-01-05T02:46:46.694Z,12.13
2018-01-05T02:49:13.510Z,16.13
2018-01-05T02:51:40.345Z,11.77
2018-01-05T02:54:07.279Z,19.33
2018-01-05T02:56:34.123Z,16.60
2018-01-05T02:59:00.890Z,19.17
2018-01-05T03:01:27.695Z,10.53
2018-01-05T03:03:55.358Z,11.97
2018-01-05T03:06:22.152Z,24.93
2018-01-05T03:08:49.005Z,15.27
2018-01-05T03:11:16.556Z,14.87
2018-01-05T03:13:43.357Z,21.00
2018-01-05T03:16:10.179Z,22.27
2018-01-05T03:18:36.984Z,17.30
2018-01-05T03:21:05.138Z,24.30
2018-01-05T03:23:32.695Z,17.07
2018-01-05T03:25:59.532Z,18.13
2018-01-05T03:28:26.330Z,16.67
2018-01-05T03:30:53.883Z,19.10
2018-01-05T03:33:20.658Z,16.63
2018-01-05T03:35:47.520Z,27.53
2018-01-05T03:38:14.307Z,15.47
2018-01-05T03:40:41.820Z,15.77
2018-01-05T03:43:08.637Z,9.73
2018-01-05T03:45:36.159Z,16.50
2018-01-05T03:48:02.970Z,11.00
2018-01-05T03:50:31.608Z,18.57
2018-01-05T03:52:58.478Z,11.93
2018-01-05T03:55:26.234Z,26.77
2018-01-05T03:57:54.802Z,18.67
2018-01-05T04:00:21.714Z,11.90
2018-01-05T04:02:48.639Z,12.13
2018-01-05T04:05:15.855Z,11.13
2018-01-05T04:07:48.182Z,12.93
2018-01-05T04:10:15.808Z,18.03
2018-01-05T04:12:47.836Z,15.53
2018-01-05T04:15:17.847Z,13.37
2018-01-05T04:17:44.990Z,19.57
2018-01-05T04:20:17.257Z,12.50
2018-01-05T04:22:45.049Z,23.90
2018-01-05T04:25:12.179Z,15.43
2018-01-05T04:27:44.551Z,12.43
2018-01-05T04:30:11.706Z,14.57
2018-01-05T04:32:44.029Z,11.00
2018-01-05T04:35:11.342Z,15.63
2018-01-05T04:37:44.048Z,13.13
2018-01-05T04:40:11.076Z,17.03
2018-01-05T04:42:38.719Z,12.40
2018-01-05T04:45:05.567Z,11.83
2018-01-05T04:47:38.025Z,9.93
2018-01-05T04:50:05.193Z,14.93
2018-01-05T04:52:38.123Z,11.20
2018-01-05T04:55:05.368Z,8.80
2018-01-05T04:57:32.747Z,10.17
2018-01-05T05:00:06.391Z,11.67
2018-01-05T05:02:36.352Z,10.33
2018-01-05T05:05:04.280Z,7.97
2018-01-05T05:07:31.099Z,12.40
2018-01-05T05:09:58.104Z,11.30
2018-01-05T05:12:31.309Z,9.93
2018-01-05T05:14:58.198Z,7.67
2018-01-05T05:17:25.064Z,5.50
2018-01-05T05:19:52.114Z,9.73
2018-01-05T05:22:20.328Z,14.40
2018-01-05T05:24:47.222Z,12.60
2018-01-05T05:27:19.714Z,12.43
2018-01-05T05:29:47.327Z,13.37
2018-01-05T05:32:14.348Z,11.40
2018-01-05T05:34:46.439Z,8.83
2018-01-05T05:37:13.966Z,17.00
2018-01-05T05:39:41.266Z,13.83
2018-01-05T05:42:09.317Z,13.13
2018-01-05T05:44:41.679Z,11.63
2018-01-05T05:47:14.622Z,11.97
2018-01-05T05:49:41.808Z,15.50
2018-01-05T05:52:14.607Z,10.67
2018-01-05T05:54:41.896Z,10.40
2018-01-05T05:57:08.905Z,12.23
2018-01-05T05:59:36.192Z,9.67
2018-01-05T06:02:04.392Z,12.43
2018-01-05T06:04:31.611Z,11.70
2018-01-05T06:06:58.847Z,12.43
2018-01-05T06:09:26.015Z,9.23
2018-01-05T06:11:53.105Z,8.30
2018-01-05T06:14:25.739Z,9.97
2018-01-05T06:16:58.047Z,11.63
2018-01-05T06:19:25.498Z,15.00
2018-01-05T06:21:52.864Z,15.83
2018-01-05T06:24:20.511Z,11.80
2018-01-05T06:26:48.954Z,11.33
2018-01-05T06:29:16.224Z,14.90
2018-01-05T06:31:43.728Z,15.00
2018-01-05T06:34:10.962Z,16.57
2018-01-05T06:36:38.660Z,8.10
2018-01-05T06:39:05.818Z,13.87
2018-01-05T06:41:32.732Z,9.47
2018-01-05T06:43:59.705Z,12.33
2018-01-05T06:46:28.582Z,10.50
2018-01-05T06:49:00.263Z,18.53
2018-01-05T06:51:29.004Z,15.33
2018-01-05T06:53:56.175Z,9.60
2018-01-05T06:56:23.061Z,15.63
2018-01-05T06:58:50.874Z,12.00
2018-01-05T07:01:18.983Z,13.97
2018-01-05T07:03:45.911Z,13.40
2018-01-05T07:06:13.715Z,13.23
2018-01-05T07:08:40.921Z,16.50
2018-01-05T07:11:08.769Z,12.70
2018-01-05T07:13:35.639Z,11.90
2018-01-05T07:16:02.414Z,9.60
2018-01-05T07:18:29.935Z,11.57
2018-01-05T07:20:56.707Z,11.60
2018-01-05T07:23:23.495Z,13.77
2018-01-05T07:25:51.229Z,19.27
2018-01-05T07:28:17.995Z,11.97
2018-01-05T07:30:44.793Z,16.37
2018-01-05T07:33:11.659Z,14.13
2018-01-05T07:35:38.475Z,14.80
2018-01-05T07:38:05.277Z,16.33
2018-01-05T07:40:32.076Z,12.27
2018-01-05T07:42:58.880Z,16.80
2018-01-05T07:45:25.679Z,21.30
2018-01-05T07:47:53.239Z,19.00
2018-01-05T07:50:20.033Z,13.70
2018-01-05T07:52:46.846Z,18.40
2018-01-05T07:55:13.626Z,20.27
2018-01-05T07:57:41.141Z,21.63
2018-01-05T08:00:07.952Z,11.50
2018-01-05T08:02:34.748Z,14.27
2018-01-05T08:05:01.536Z,11.20
2018-01-05T08:07:28.306Z,18.23
2018-01-05T08:09:55.211Z,15.63
2018-01-05T08:12:22.803Z,14.53
2018-01-05T08:14:49.580Z,11.57
2018-01-05T08:17:16.341Z,14.93
2018-01-05T08:19:43.877Z,19.90
2018-01-05T08:22:11.403Z,11.93
2018-01-05T08:24:38.188Z,10.53
2018-01-05T08:27:05.075Z,13.90
2018-01-05T08:29:31.930Z,12.10
2018-01-05T08:31:58.736Z,14.33
2018-01-05T08:34:25.517Z,13.10
2018-01-05T08:36:52.300Z,11.37
2018-01-05T08:39:19.283Z,12.53
2018-01-05T08:41:46.097Z,13.27
2018-01-05T08:44:12.890Z,13.40
2018-01-05T08:46:39.715Z,18.60
2018-01-05T08:49:06.493Z,15.97
2018-01-05T08:51:33.253Z,9.07
2018-01-05T08:54:00.079Z,12.83
2018-01-05T08:56:26.892Z,10.73
2018-01-05T08:58:53.676Z,16.90
2018-01-05T09:01:21.216Z,12.27
2018-01-05T09:03:48.037Z,10.90
2018-01-05T09:06:14.855Z,6.53
2018-01-05T09:08:41.660Z,14.80
2018-01-05T09:11:08.481Z,10.97
2018-01-05T09:13:35.995Z,9.83
2018-01-05T09:16:02.842Z,11.63
2018-01-05T09:18:29.676Z,12.83
2018-01-05T09:20:57.245Z,10.87
2018-01-05T09:23:24.958Z,15.60
2018-01-05T09:25:51.786Z,11.00
2018-01-05T09:28:18.695Z,9.30
2018-01-05T09:30:45.498Z,10.90
2018-01-05T09:33:12.273Z,9.07
2018-01-05T09:35:39.042Z,11.83
2018-01-05T09:38:06.556Z,10.47
2018-01-05T09:40:33.411Z,3.53
2018-01-05T09:43:00.174Z,14.77
2018-01-05T09:45:26.929Z,4.87
2018-01-05T09:47:53.721Z,7.77
2018-01-05T09:50:20.478Z,13.67
2018-01-05T09:52:47.285Z,10.07
2018-01-05T09:55:14.057Z,15.33
2018-01-05T09:57:40.851Z,8.70
2018-01-05T10:00:07.660Z,10.90
2018-01-05T10:02:35.142Z,7.23
2018-01-05T10:05:02.727Z,15.00
2018-01-05T10:07:29.566Z,11.20
2018-01-05T10:09:57.072Z,10.90
2018-01-05T10:12:23.865Z,10.63
2018-01-05T10:14:50.672Z,16.77
2018-01-05T10:17:18.204Z,14.20
2018-01-05T10:19:44.973Z,10.43
2018-01-05T10:22:11.791Z,13.70
2018-01-05T10:24:38.599Z,11.50
2018-01-05T10:27:05.415Z,10.47
2018-01-05T10:29:32.228Z,12.40
2018-01-05T10:31:58.988Z,5.87
2018-01-05T10:34:25.774Z,10.33
2018-01-05T10:36:53.482Z,13.80
2018-01-05T10:39:20.275Z,15.37
2018-01-05T10:41:47.029Z,15.47
2018-01-05T10:44:13.830Z,12.57
2018-01-05T10:46:41.400Z,12.97
2018-01-05T10:49:08.923Z,15.63
2018-01-05T10:51:35.727Z,6.67
2018-01-05T10:54:02.642Z,12.63
2018-01-05T10:56:29.437Z,11.67
2018-01-05T10:58:56.211Z,8.77
2018-01-05T11:01:23.051Z,10.03
2018-01-05T11:03:49.837Z,16.47
2018-01-05T11:06:17.380Z,11.60
2018-01-05T11:08:44.201Z,8.80
2018-01-05T11:11:11.064Z,9.77
2018-01-05T11:13:37.932Z,14.30
2018-01-05T11:16:04.994Z,15.70
2018-01-05T11:18:31.838Z,11.00
2018-01-05T11:20:59.447Z,11.00
2018-01-05T11:23:26.296Z,16.03
2018-01-05T11:25:53.071Z,15.87
2018-01-05T11:28:19.881Z,6.63
2018-01-05T11:30:46.701Z,10.90
2018-01-05T11:33:13.555Z,19.20
2018-01-05T11:35:40.342Z,13.23
2018-01-05T11:38:07.170Z,10.93
2018-01-05T11:40:33.967Z,9.10
2018-01-05T11:43:00.788Z,9.80
2018-01-05T11:45:27.540Z,12.40
2018-01-05T11:47:54.355Z,13.93
2018-01-05T11:50:21.143Z,8.20
2018-01-05T11:52:47.989Z,12.00
2018-01-05T11:55:15.541Z,12.23
2018-01-05T11:57:42.337Z,13.60
2018-01-05T12:00:09.894Z,11.93
2018-01-05T12:02:36.715Z,7.70
2018-01-05T12:05:03.507Z,7.90
2018-01-05T12:07:30.308Z,13.87
2018-01-05T12:09:57.077Z,18.50
2018-01-05T12:12:23.916Z,14.90
2018-01-05T12:14:51.475Z,9.60
2018-01-05T12:17:18.284Z,13.87
2018-01-05T12:19:45.064Z,12.10
2018-01-05T12:22:11.868Z,15.03
2018-01-05T12:24:39.416Z,14.47
2018-01-05T12:27:06.275Z,17.70
2018-01-05T12:29:33.046Z,15.20
2018-01-05T12:31:59.870Z,16.20
2018-01-05T12:34:26.725Z,21.33
2018-01-05T12:36:53.598Z,10.20
2018-01-05T12:39:22.069Z,12.87
2018-01-05T12:41:48.932Z,8.77
2018-01-05T12:44:15.759Z,8.40
2018-01-05T12:46:42.566Z,17.50
2018-01-05T12:49:09.424Z,18.50
2018-01-05T12:51:36.255Z,20.13
2018-01-05T12:54:03.117Z,17.60
2018-01-05T12:56:30.219Z,13.57
2018-01-05T12:59:00.277Z,13.13
2018-01-05T13:01:27.186Z,8.70
2018-01-05T13:03:54.003Z,11.67
2018-01-05T13:06:20.822Z,15.00
2018-01-05T13:08:47.718Z,15.77
2018-01-05T13:11:14.569Z,9.53
2018-01-05T13:13:42.126Z,9.20
2018-01-05T13:16:08.923Z,10.50
2018-01-05T13:18:35.822Z,9.67
2018-01-05T13:21:03.409Z,12.50
2018-01-05T13:23:30.220Z,14.60
2018-01-05T13:25:57.051Z,16.87
2018-01-05T13:28:24.128Z,19.10
2018-01-05T13:30:50.996Z,18.80
2018-01-05T13:33:17.804Z,16.67
2018-01-05T13:35:45.400Z,18.73
2018-01-05T13:38:13.002Z,14.37
2018-01-05T13:40:40.030Z,14.50
2018-01-05T13:43:06.919Z,13.70
2018-01-05T13:45:33.792Z,16.17
2018-01-05T13:48:00.933Z,15.83
2018-01-05T13:50:27.859Z,20.20
2018-01-05T13:52:54.869Z,14.80
2018-01-05T13:55:21.712Z,11.97
2018-01-05T13:57:48.564Z,13.10
2018-01-05T14:00:15.502Z,11.43
2018-01-05T14:02:42.340Z,17.63
2018-01-05T14:05:09.909Z,15.73
2018-01-05T14:07:36.724Z,20.57
2018-01-05T14:10:04.451Z,17.37
2018-01-05T14:12:31.276Z,18.43
2018-01-05T14:14:58.837Z,15.00
2018-01-05T14:17:25.698Z,14.17
2018-01-05T14:19:52.529Z,15.83
2018-01-05T14:22:19.425Z,17.43
2018-01-05T14:24:46.974Z,11.97
2018-01-05T14:27:13.931Z,9.40
2018-01-05T14:29:40.741Z,12.67
2018-01-05T14:32:08.322Z,19.73
2018-01-05T14:34:35.268Z,21.60
2018-01-05T14:37:02.197Z,17.40
2018-01-05T14:39:29.063Z,17.97
2018-01-05T14:41:55.909Z,12.70
2018-01-05T14:44:22.750Z,13.83
2018-01-05T14:46:49.576Z,18.43
2018-01-05T14:49:16.433Z,20.00
2018-01-05T14:51:43.259Z,17.40
2018-01-05T14:54:10.065Z,15.83
2018-01-05T14:56:37.625Z,11.90
2018-01-05T14:59:04.430Z,13.57
2018-01-05T15:01:32.176Z,17.17
2018-01-05T15:03:59.365Z,20.33
2018-01-05T15:06:26.816Z,10.20
2018-01-05T15:08:53.677Z,10.90
2018-01-05T15:11:20.591Z,17.50
2018-01-05T15:13:47.464Z,16.80
2018-01-05T15:16:14.311Z,18.57
2018-01-05T15:18:41.693Z,23.47
2018-01-05T15:21:08.546Z,13.17
2018-01-05T15:23:35.487Z,13.63
2018-01-05T15:26:03.128Z,16.00
2018-01-05T15:28:30.428Z,13.90
2018-01-05T15:30:59.467Z,14.90
2018-01-05T15:33:26.794Z,17.13
2018-01-05T15:35:53.687Z,18.57
2018-01-05T15:38:22.853Z,15.40
2018-01-05T15:40:49.710Z,20.63
2018-01-05T15:43:16.541Z,14.03
2018-01-05T15:45:43.368Z,12.70
2018-01-05T15:48:10.469Z,15.80
2018-01-05T15:50:37.343Z,16.00
2018-01-05T15:53:04.137Z,16.30
2018-01-05T15:55:31.035Z,16.00
2018-01-05T15:57:58.562Z,15.23
2018-01-05T16:00:25.357Z,18.13
2018-01-05T16:02:52.193Z,17.70
2018-01-05T16:05:19.006Z,13.10
2018-01-05T16:07:45.817Z,25.47
2018-01-05T16:10:12.700Z,14.43
2018-01-05T16:12:39.490Z,23.27
2018-01-05T16:15:06.612Z,15.53
2018-01-05T16:17:34.056Z,21.07
2018-01-05T16:20:00.960Z,17.33
2018-01-05T16:22:27.816Z,12.17
2018-01-05T16:24:54.713Z,23.50
2018-01-05T16:27:21.621Z,24.07
2018-01-05T16:29:48.505Z,12.57
2018-01-05T16:32:15.509Z,18.43
2018-01-05T16:34:42.329Z,16.53
2018-01-05T16:37:09.992Z,13.77
2018-01-05T16:39:36.909Z,13.07
2018-01-05T16:42:03.713Z,18.83
2018-01-05T16:44:30.626Z,19.57
2018-01-05T16:46:57.440Z,16.07
2018-01-05T16:49:24.225Z,16.43
2018-01-05T16:51:51.110Z,13.63
2018-01-05T16:54:17.924Z,18.67
2018-01-05T16:56:44.699Z,16.07
2018-01-05T16:59:11.490Z,15.70
2018-01-05T17:01:38.300Z,15.97
2018-01-05T17:04:05.102Z,20.27
2018-01-05T17:06:31.960Z,25.80
2018-01-05T17:09:00.366Z,21.83
2018-01-05T17:11:27.928Z,12.20
2018-01-05T17:13:57.615Z,21.33
2018-01-05T17:16:24.466Z,25.87
2018-01-05T17:18:51.853Z,18.43
2018-01-05T17:21:19.278Z,14.77
2018-01-05T17:23:47.048Z,15.63
2018-01-05T17:26:14.273Z,17.97
2018-01-05T17:28:42.626Z,13.90
2018-01-05T17:31:10.321Z,17.37
2018-01-05T17:33:37.663Z,14.33
2018-01-05T17:36:04.738Z,14.10
2018-01-05T17:38:32.080Z,13.90
2018-01-05T17:41:00.327Z,13.23
2018-01-05T17:43:27.180Z,19.63
2018-01-05T17:45:54.197Z,14.73
2018-01-05T17:48:21.256Z,16.60
2018-01-05T17:50:48.707Z,15.00
2018-01-05T17:53:15.579Z,17.67
2018-01-05T17:55:42.610Z,9.90
2018-01-05T17:58:09.520Z,11.60
2018-01-05T18:00:36.492Z,9.57
2018-01-05T18:03:04.707Z,9.10
2018-01-05T18:05:32.745Z,15.43
2018-01-05T18:08:00.212Z,12.13
2018-01-05T18:10:27.296Z,12.37
2018-01-05T18:12:54.572Z,13.93
2018-01-05T18:15:22.202Z,14.07
2018-01-05T18:17:49.041Z,11.03
2018-01-05T18:20:15.910Z,12.67
2018-01-05T18:22:44.065Z,14.53
2018-01-05T18:25:11.023Z,10.80
2018-01-05T18:27:38.248Z,21.50
2018-01-05T18:30:05.850Z,11.60
2018-01-05T18:32:32.852Z,12.43
2018-01-05T18:34:59.972Z,10.93
2018-01-05T18:37:27.631Z,17.27
2018-01-05T18:39:54.752Z,9.40
2018-01-05T18:42:22.371Z,13.40
2018-01-05T18:44:49.561Z,13.33
2018-01-05T18:47:16.560Z,9.17
2018-01-05T18:49:43.485Z,9.10
2018-01-05T18:52:10.588Z,10.83
2018-01-05T18:54:37.461Z,9.50
2018-01-05T18:57:04.472Z,12.43
2018-01-05T18:59:31.536Z,8.30
2018-01-05T19:01:58.384Z,10.57
2018-01-05T19:04:25.367Z,14.43
2018-01-05T19:06:52.233Z,12.90
2018-01-05T19:09:19.254Z,7.90
2018-01-05T19:11:46.168Z,14.00
2018-01-05T19:14:13.056Z,6.03
2018-01-05T19:16:39.926Z,10.83
2018-01-05T19:19:07.227Z,13.73
2018-01-05T19:21:35.037Z,10.30
2018-01-05T19:24:02.882Z,9.80
2018-01-05T19:26:30.692Z,12.90
2018-01-05T19:28:58.253Z,15.40
2018-01-05T19:31:25.655Z,9.40
2018-01-05T19:33:53.631Z,9.13
2018-01-05T19:36:21.193Z,9.10
2018-01-05T19:38:48.102Z,9.87
2018-01-05T19:41:14.995Z,12.27
2018-01-05T19:43:41.840Z,12.73
2018-01-05T19:46:08.726Z,12.17
2018-01-05T19:48:36.415Z,9.83
2018-01-05T19:51:05.296Z,8.93
2018-01-05T19:53:33.296Z,8.27
2018-01-05T19:56:00.409Z,6.80
2018-01-05T19:58:28.184Z,9.23
2018-01-05T20:00:56.346Z,9.27
2018-01-05T20:03:23.834Z,9.53
2018-01-05T20:05:50.648Z,8.13
2018-01-05T20:08:17.758Z,11.70
2018-01-05T20:10:45.268Z,6.90
2018-01-05T20:13:14.149Z,6.83
2018-01-05T20:15:42.480Z,5.67
2018-01-05T20:18:10.044Z,7.37
2018-01-05T20:20:37.916Z,15.93
2018-01-05T20:23:05.007Z,5.43
2018-01-05T20:25:33.432Z,6.27
2018-01-05T20:28:02.045Z,6.50
2018-01-05T20:30:31.096Z,9.93
2018-01-05T20:32:59.275Z,4.70
2018-01-05T20:35:27.957Z,3.63
2018-01-05T20:37:56.812Z,4.30
2018-01-05T20:40:25.564Z,5.37
2018-01-05T20:42:54.375Z,5.53
2018-01-05T20:45:23.273Z,3.07
2018-01-05T20:47:52.158Z,5.23
2018-01-05T20:50:20.982Z,8.30
2018-01-05T20:52:49.762Z,9.27
2018-01-05T20:55:17.997Z,3.90
2018-01-05T20:57:47.698Z,4.47
2018-01-05T21:00:16.423Z,5.40
2018-01-05T21:02:45.250Z,3.77
2018-01-05T21:05:13.909Z,8.10
2018-01-05T21:07:42.789Z,3.80
2018-01-05T21:10:10.625Z,6.03
2018-01-05T21:12:39.356Z,11.13
2018-01-05T21:15:08.245Z,4.10
2018-01-05T21:17:36.624Z,4.57
2018-01-05T21:20:04.036Z,8.13
2018-01-05T21:22:32.059Z,6.10
2018-01-05T21:25:00.769Z,2.30
2018-01-05T21:27:29.355Z,10.77
2018-01-05T21:29:59.126Z,1.53
2018-01-05T21:32:28.070Z,4.73
2018-01-05T21:34:57.062Z,2.60
2018-01-05T21:37:26.037Z,3.83
2018-01-05T21:39:55.128Z,4.47
2018-01-05T21:42:24.029Z,5.20
2018-01-05T21:44:52.882Z,2.50
2018-01-05T21:47:21.809Z,3.10
2018-01-05T21:49:50.693Z,4.13
2018-01-05T21:52:19.250Z,5.00
2018-01-05T21:54:48.057Z,5.00
2018-01-05T21:57:16.631Z,1.90
2018-01-05T21:59:45.223Z,4.93
2018-01-05T22:02:13.317Z,3.30
2018-01-05T22:04:43.071Z,3.50
2018-01-05T22:07:11.052Z,6.00
2018-01-05T22:09:39.881Z,6.97
2018-01-05T22:12:08.429Z,4.43
2018-01-05T22:14:37.033Z,2.53
2018-01-05T22:17:05.701Z,5.53
2018-01-05T22:19:34.205Z,4.03
2018-01-05T22:22:02.847Z,4.30
2018-01-05T22:24:32.358Z,4.40
2018-01-05T22:27:04.249Z,7.67
2018-01-05T22:29:32.962Z,8.53
2018-01-05T22:32:01.861Z,4.90
2018-01-05T22:34:32.040Z,7.93
2018-01-05T22:37:00.440Z,5.43
2018-01-05T22:39:30.102Z,3.90
2018-01-05T22:42:00.390Z,6.53
2018-01-05T22:44:28.608Z,7.37
2018-01-05T22:46:56.835Z,5.93
2018-01-05T22:49:25.879Z,2.55
2018-01-05T22:51:53.153Z,5.67
2018-01-05T22:54:21.608Z,3.53
2018-01-05T22:56:49.123Z,7.23
2018-01-05T22:59:16.212Z,10.60
2018-01-05T23:01:43.186Z,6.10
2018-01-05T23:04:10.163Z,6.30
2018-01-05T23:06:37.078Z,4.32
2018-01-05T23:09:04.259Z,4.35
2018-01-05T23:11:31.491Z,5.30
2018-01-05T23:13:59.152Z,7.75
2018-01-05T23:16:27.080Z,6.00
2018-01-05T23:18:57.972Z,7.15
2018-01-05T23:21:28.322Z,9.00
2018-01-05T23:23:56.881Z,6.00
2018-01-05T23:26:28.334Z,7.25
2018-01-05T23:28:57.070Z,5.22
2018-01-05T23:31:24.975Z,5.65
2018-01-05T23:33:53.174Z,5.18
2018-01-05T23:36:20.647Z,5.43
2018-01-05T23:38:48.591Z,6.65
2018-01-05T23:41:15.743Z,9.27
2018-01-05T23:43:43.657Z,8.57
2018-01-05T23:46:10.881Z,5.07
2018-01-05T23:48:38.085Z,8.40
2018-01-05T23:51:05.456Z,8.18
2018-01-05T23:53:33.752Z,7.97
2018-01-05T23:56:02.422Z,6.00
2018-01-05T23:58:29.859Z,3.95
